CMA CGM Columba — 2DBC9 — position and weather

sailwx.info

Track history (hours):
 
Tides and Currents Weather Stations Pressure Air Temp Water Temp Dewpoint Dewpoint Depression Visibility Wind Speed Wind Dir Waves Ship Positions

CMA CGM Columba

Last reported at 2015-Jun-30 13:32 UTC. Time now 2015-Jun-30 14:33 UTC.
Position N 36°43' W 009°03'.

Length 363 m; draft 15.4 m.

Type: Ship (hazmat cat A). MMSI: 235077448.

Date/timePositionNaut miles runAvg speedWind from/ knotsBaromVisibWave heightAir tempDewpointWater temp
2015-Jun-30 13:32N 36°43' W 009°03'2020.1
2015-Jun-30 12:34N 36°37' W 008°39'2020.0
2015-Jun-30 11:33N 36°31' W 008°15'2019.9
2015-Jun-30 10:33N 36°24' W 007°52'2019.9
2015-Jun-30 09:33N 36°19' W 007°28'6220.5
2015-Jun-30 06:33N 35°59' W 006°16'2019.9
2015-Jun-30 05:33N 35°58' W 005°52'1818.3
2015-Jun-30 04:33N 35°59' W 005°29'2719.3
2015-Jun-30 03:09N 36°05' W 004°56'9219.4
2015-Jun-29 22:25N 36°19' W 003°04'1720.2
2015-Jun-29 21:34N 36°21' W 002°42'2020.3
2015-Jun-29 20:33N 36°25' W 002°17'2120.5
2015-Jun-29 19:33N 36°29' W 001°52'4220.9
2015-Jun-29 17:33N 36°36' W 001°01'2120.8
2015-Jun-29 16:33N 36°39' W 000°36'2120.9
2015-Jun-29 15:33N 36°43' W 000°10'2120.6
2015-Jun-29 14:33N 36°46' E 000°15'2020.0
2015-Jun-29 13:34N 36°50' E 000°40'2020.3
2015-Jun-29 12:34N 36°54' E 001°05'2120.8
2015-Jun-29 11:33N 36°57' E 001°31'2020.4
2015-Jun-29 10:34N 37°00' E 001°56'2120.7
2015-Jun-29 09:32N 37°04' E 002°22'2020.7
2015-Jun-29 08:33N 37°08' E 002°47'2120.7
2015-Jun-29 07:33N 37°11' E 003°13'2721.0
2015-Jun-29 06:16N 37°15' E 003°46'4021.5
2015-Jun-29 04:25N 37°22' E 004°35'1821.1
2015-Jun-29 03:33N 37°23' E 004°58'2121.4
2015-Jun-29 02:33N 37°26' E 005°25'2321.8
2015-Jun-29 01:30N 37°28' E 005°54'7221.9
2015-Jun-28 22:14N 37°35' E 007°24'6221.6
2015-Jun-28 19:21N 37°42' E 008°42'1721.0
2015-Jun-28 18:33N 37°43' E 009°03'2120.9
2015-Jun-28 17:32N 37°41' E 009°30'2720.7
2015-Jun-28 16:14N 37°39' E 010°04'1420.3
2015-Jun-28 15:34N 37°38' E 010°21'2020.3
2015-Jun-28 14:33N 37°35' E 010°46'2020.0
2015-Jun-28 13:33N 37°28' E 011°10'4320.8
2015-Jun-28 11:31N 37°08' E 011°57'2020.6
2015-Jun-28 10:33N 37°01' E 012°20'2220.5
2015-Jun-28 09:28N 36°53' E 012°46'1820.1
2015-Jun-28 08:34N 36°46' E 013°07'2120.2
2015-Jun-28 07:31N 36°39' E 013°32'1920.1
2015-Jun-28 06:34N 36°32' E 013°55'2020.0
2015-Jun-28 05:34N 36°25' E 014°18'2020.3
2015-Jun-28 04:34N 36°18' E 014°42'10820.9
2015-Jun-27 23:23N 35°46' E 016°49'65220.5
2015-Jun-26 15:33N 32°34' E 029°22'2521.3
2015-Jun-26 14:22N 32°26' E 029°51'  
Track history (hours):
 
Tides and Currents Weather Stations Pressure Air Temp Water Temp Dewpoint Dewpoint Depression Visibility Wind Speed Wind Dir Waves Ship Positions

CMA CGM Columba

Last reported at 2015-Jun-30 13:32 UTC. Time now 2015-Jun-30 14:33 UTC.
Position N 36°43' W 009°03'.

Length 363 m; draft 15.4 m.

Type: Ship (hazmat cat A). MMSI: 235077448.

Date/timePositionNaut miles runAvg speedWind from/ knotsBaromVisibWave heightAir tempDewpointWater temp
2015-Jun-30 13:32N 36°43' W 009°03'2020.1
2015-Jun-30 12:34N 36°37' W 008°39'2020.0
2015-Jun-30 11:33N 36°31' W 008°15'2019.9
2015-Jun-30 10:33N 36°24' W 007°52'2019.9
2015-Jun-30 09:33N 36°19' W 007°28'6220.5
2015-Jun-30 06:33N 35°59' W 006°16'2019.9
2015-Jun-30 05:33N 35°58' W 005°52'1818.3
2015-Jun-30 04:33N 35°59' W 005°29'2719.3
2015-Jun-30 03:09N 36°05' W 004°56'9219.4
2015-Jun-29 22:25N 36°19' W 003°04'1720.2
2015-Jun-29 21:34N 36°21' W 002°42'2020.3
2015-Jun-29 20:33N 36°25' W 002°17'2120.5
2015-Jun-29 19:33N 36°29' W 001°52'4220.9
2015-Jun-29 17:33N 36°36' W 001°01'2120.8
2015-Jun-29 16:33N 36°39' W 000°36'2120.9
2015-Jun-29 15:33N 36°43' W 000°10'2120.6
2015-Jun-29 14:33N 36°46' E 000°15'2020.0
2015-Jun-29 13:34N 36°50' E 000°40'2020.3
2015-Jun-29 12:34N 36°54' E 001°05'2120.8
2015-Jun-29 11:33N 36°57' E 001°31'2020.4
2015-Jun-29 10:34N 37°00' E 001°56'2120.7
2015-Jun-29 09:32N 37°04' E 002°22'2020.7
2015-Jun-29 08:33N 37°08' E 002°47'2120.7
2015-Jun-29 07:33N 37°11' E 003°13'2721.0
2015-Jun-29 06:16N 37°15' E 003°46'4021.5
2015-Jun-29 04:25N 37°22' E 004°35'1821.1
2015-Jun-29 03:33N 37°23' E 004°58'2121.4
2015-Jun-29 02:33N 37°26' E 005°25'2321.8
2015-Jun-29 01:30N 37°28' E 005°54'7221.9
2015-Jun-28 22:14N 37°35' E 007°24'6221.6
2015-Jun-28 19:21N 37°42' E 008°42'1721.0
2015-Jun-28 18:33N 37°43' E 009°03'2120.9
2015-Jun-28 17:32N 37°41' E 009°30'2720.7
2015-Jun-28 16:14N 37°39' E 010°04'1420.3
2015-Jun-28 15:34N 37°38' E 010°21'2020.3
2015-Jun-28 14:33N 37°35' E 010°46'2020.0
2015-Jun-28 13:33N 37°28' E 011°10'4320.8
2015-Jun-28 11:31N 37°08' E 011°57'2020.6
2015-Jun-28 10:33N 37°01' E 012°20'2220.5
2015-Jun-28 09:28N 36°53' E 012°46'1820.1
2015-Jun-28 08:34N 36°46' E 013°07'2120.2
2015-Jun-28 07:31N 36°39' E 013°32'1920.1
2015-Jun-28 06:34N 36°32' E 013°55'2020.0
2015-Jun-28 05:34N 36°25' E 014°18'2020.3
2015-Jun-28 04:34N 36°18' E 014°42'10820.9
2015-Jun-27 23:23N 35°46' E 016°49'65220.5
2015-Jun-26 15:33N 32°34' E 029°22'2521.3
2015-Jun-26 14:22N 32°26' E 029°51'  

Dump ship's entire track history